createdAt,value
2022-08-07T00:00:11.428Z,89.84
2022-08-07T00:02:44.427Z,90.05
2022-08-07T00:05:11.843Z,90.18
2022-08-07T00:07:40.070Z,90.67
2022-08-07T00:10:26.065Z,91.09
2022-08-07T00:12:59.781Z,91.24
2022-08-07T00:15:38.188Z,91.05
2022-08-07T00:18:23.879Z,90.97
2022-08-07T00:21:01.805Z,90.92
2022-08-07T00:23:32.369Z,91.01
2022-08-07T00:26:10.828Z,91.00
2022-08-07T00:28:45.691Z,90.56
2022-08-07T00:31:22.695Z,90.19
2022-08-07T00:33:49.994Z,90.02
2022-08-07T00:36:17.255Z,89.92
2022-08-07T00:38:44.261Z,90.10
2022-08-07T00:41:14.730Z,90.86
2022-08-07T00:44:00.668Z,91.02
2022-08-07T00:46:30.982Z,91.13
2022-08-07T00:49:03.443Z,91.07
2022-08-07T00:51:58.378Z,91.13
2022-08-07T00:54:19.761Z,90.88
2022-08-07T00:56:49.728Z,90.82
2022-08-07T00:59:20.107Z,90.87
2022-08-07T01:02:00.193Z,90.99
2022-08-07T01:04:30.316Z,90.94
2022-08-07T01:07:00.009Z,90.74
2022-08-07T01:10:05.259Z,91.10
2022-08-07T01:12:29.825Z,90.50
2022-08-07T01:15:04.025Z,90.60
2022-08-07T01:17:33.134Z,90.98
2022-08-07T01:20:10.376Z,90.64
2022-08-07T01:22:57.829Z,90.34
2022-08-07T01:25:40.305Z,90.51
2022-08-07T01:28:20.679Z,90.45
2022-08-07T01:30:53.058Z,90.78
2022-08-07T01:33:22.930Z,90.92
2022-08-07T01:35:54.350Z,90.95
2022-08-07T01:38:34.809Z,90.97
2022-08-07T01:41:12.225Z,91.58
2022-08-07T01:43:54.737Z,92.04
2022-08-07T01:46:22.071Z,92.75
2022-08-07T01:48:51.368Z,92.87
2022-08-07T01:52:02.175Z,92.27
2022-08-07T01:54:32.616Z,92.05
2022-08-07T01:57:08.354Z,92.05
2022-08-07T01:59:45.263Z,92.04
2022-08-07T02:03:12.387Z,91.56
2022-08-07T02:05:48.436Z,91.82
2022-08-07T02:08:24.583Z,91.84
2022-08-07T02:10:58.176Z,91.50
2022-08-07T02:13:56.655Z,91.72
2022-08-07T02:16:28.418Z,91.88
2022-08-07T02:19:05.591Z,91.54
2022-08-07T02:21:56.018Z,91.95
2022-08-07T02:24:25.544Z,91.93
2022-08-07T02:27:00.102Z,91.06
2022-08-07T02:29:31.266Z,91.76
2022-08-07T02:32:01.698Z,92.32
2022-08-07T02:34:33.131Z,93.12
2022-08-07T02:37:08.272Z,92.84
2022-08-07T02:39:43.004Z,93.53
2022-08-07T02:42:16.845Z,93.82
2022-08-07T02:44:51.041Z,93.99
2022-08-07T02:47:24.915Z,94.12
2022-08-07T02:50:00.654Z,94.28
2022-08-07T02:52:39.458Z,94.35
2022-08-07T02:55:27.979Z,94.48
2022-08-07T02:58:07.989Z,94.76
2022-08-07T03:00:40.934Z,94.19
2022-08-07T03:03:22.655Z,94.64
2022-08-07T03:05:56.327Z,94.54
2022-08-07T03:08:26.742Z,94.56
2022-08-07T03:10:57.663Z,94.11
2022-08-07T03:13:39.048Z,94.33
2022-08-07T03:16:18.333Z,94.12
2022-08-07T03:18:52.750Z,94.02
2022-08-07T03:21:22.563Z,93.80
2022-08-07T03:24:17.761Z,94.39
2022-08-07T03:26:51.339Z,94.12
2022-08-07T03:29:33.770Z,93.90
2022-08-07T03:32:07.371Z,94.11
2022-08-07T03:34:47.014Z,94.30
2022-08-07T03:37:32.485Z,94.26
2022-08-07T03:40:14.883Z,93.47
2022-08-07T03:42:52.674Z,93.73
2022-08-07T03:45:30.804Z,94.50
2022-08-07T03:48:10.028Z,94.15
2022-08-07T03:50:39.226Z,94.46
2022-08-07T03:53:11.455Z,94.24
2022-08-07T03:55:58.080Z,94.43
2022-08-07T03:59:07.272Z,94.23
2022-08-07T04:01:18.890Z,93.69
2022-08-07T04:03:55.234Z,94.39
2022-08-07T04:06:37.238Z,93.91
2022-08-07T04:09:15.863Z,93.99
2022-08-07T04:12:24.569Z,94.02
2022-08-07T04:14:38.656Z,94.17
2022-08-07T04:18:04.655Z,94.84
2022-08-07T04:20:01.358Z,95.00
2022-08-07T04:22:31.987Z,94.83
2022-08-07T04:25:11.947Z,94.82
2022-08-07T04:27:43.955Z,94.96
2022-08-07T04:30:21.462Z,95.36
2022-08-07T04:33:08.970Z,94.96
2022-08-07T04:35:39.759Z,94.98
2022-08-07T04:38:14.393Z,94.75
2022-08-07T04:40:51.705Z,94.82
2022-08-07T04:44:10.664Z,94.74
2022-08-07T04:47:03.993Z,94.71
2022-08-07T04:49:47.576Z,94.73
2022-08-07T04:52:52.110Z,94.70
2022-08-07T04:58:12.233Z,94.60
2022-08-07T04:59:17.460Z,94.03
2022-08-07T05:01:54.350Z,94.38
2022-08-07T05:04:47.351Z,94.21
2022-08-07T05:07:30.415Z,94.41
2022-08-07T05:10:06.510Z,94.66
2022-08-07T05:12:53.093Z,94.58
2022-08-07T05:15:28.010Z,94.75
2022-08-07T05:18:08.668Z,94.32
2022-08-07T05:20:43.981Z,94.24
2022-08-07T05:23:16.851Z,94.12
2022-08-07T05:26:10.403Z,94.13
2022-08-07T05:28:40.526Z,94.29
2022-08-07T05:31:14.517Z,94.04
2022-08-07T05:33:51.421Z,94.38
2022-08-07T05:36:35.354Z,94.98
2022-08-07T05:39:09.134Z,94.40
2022-08-07T05:42:02.687Z,94.17
2022-08-07T05:44:36.499Z,94.02
2022-08-07T05:47:18.116Z,93.65
2022-08-07T05:49:53.145Z,93.04
2022-08-07T05:52:29.843Z,92.77
2022-08-07T05:55:07.223Z,92.21
2022-08-07T05:57:42.346Z,91.39
2022-08-07T06:00:16.306Z,91.85
2022-08-07T06:02:53.926Z,91.48
2022-08-07T06:05:28.327Z,91.06
2022-08-07T06:08:13.535Z,90.70
2022-08-07T06:10:51.357Z,90.48
2022-08-07T06:14:10.653Z,90.51
2022-08-07T06:16:10.191Z,90.18
2022-08-07T06:18:40.387Z,89.85
2022-08-07T06:22:15.158Z,89.24
2022-08-07T06:24:46.346Z,89.02
2022-08-07T06:26:47.719Z,89.41
2022-08-07T06:29:14.776Z,88.58
2022-08-07T06:31:49.720Z,88.38
2022-08-07T06:34:25.775Z,87.89
2022-08-07T06:36:58.596Z,87.25
2022-08-07T06:40:18.365Z,86.29
2022-08-07T06:42:37.632Z,85.68
2022-08-07T06:45:11.967Z,85.13
2022-08-07T06:47:57.636Z,84.18
2022-08-07T06:50:30.864Z,83.30
2022-08-07T06:53:04.197Z,82.70
2022-08-07T06:55:53.513Z,81.26
2022-08-07T06:58:27.616Z,80.38
2022-08-07T07:01:07.268Z,79.75
2022-08-07T07:03:47.590Z,79.15
2022-08-07T07:06:23.939Z,79.39
2022-08-07T07:08:53.309Z,79.29
2022-08-07T07:12:09.682Z,79.25
2022-08-07T07:14:16.462Z,79.18
2022-08-07T07:16:50.609Z,78.33
2022-08-07T07:19:55.716Z,78.37
2022-08-07T07:22:36.639Z,78.15
2022-08-07T07:26:33.145Z,77.29
2022-08-07T07:28:29.676Z,76.88
2022-08-07T07:31:21.744Z,75.85
2022-08-07T07:33:58.840Z,75.33
2022-08-07T07:36:32.188Z,75.27
2022-08-07T07:39:01.618Z,74.94
2022-08-07T07:41:30.854Z,74.50
2022-08-07T07:44:25.707Z,73.27
2022-08-07T07:46:59.459Z,74.41
2022-08-07T07:50:36.179Z,74.07
2022-08-07T07:52:30.638Z,72.99
2022-08-07T07:54:59.527Z,74.22
2022-08-07T07:57:51.816Z,72.41
2022-08-07T08:00:20.948Z,71.93
2022-08-07T08:03:05.431Z,72.17
2022-08-07T08:05:50.807Z,71.46
2022-08-07T08:08:34.693Z,71.21
2022-08-07T08:11:08.433Z,71.10
2022-08-07T08:13:54.929Z,70.44
2022-08-07T08:16:35.232Z,68.97
2022-08-07T08:19:18.064Z,67.93
2022-08-07T08:22:12.633Z,67.00
2022-08-07T08:25:09.586Z,65.65
2022-08-07T08:27:56.380Z,65.73
2022-08-07T08:30:26.229Z,66.60
2022-08-07T08:32:57.036Z,66.98
2022-08-07T08:35:28.898Z,64.81
2022-08-07T08:38:09.905Z,61.55
2022-08-07T08:40:43.924Z,61.92
2022-08-07T08:43:42.830Z,62.91
2022-08-07T08:46:41.186Z,62.80
2022-08-07T08:50:04.500Z,61.77
2022-08-07T08:52:40.744Z,60.23
2022-08-07T08:55:53.339Z,61.04
2022-08-07T08:58:34.262Z,60.28
2022-08-07T09:01:43.944Z,58.37
2022-08-07T09:04:16.628Z,56.92
2022-08-07T09:06:52.808Z,55.82
2022-08-07T09:09:36.614Z,57.17
2022-08-07T09:12:20.051Z,57.94
2022-08-07T09:16:22.439Z,58.09
2022-08-07T09:18:34.995Z,57.74
2022-08-07T09:21:33.775Z,58.20
2022-08-07T09:25:00.260Z,55.12
2022-08-07T09:27:59.544Z,55.48
2022-08-07T09:30:30.139Z,53.75
2022-08-07T09:33:40.717Z,52.55
2022-08-07T09:36:15.337Z,52.20
2022-08-07T09:38:59.112Z,53.13
2022-08-07T09:41:58.984Z,51.32
2022-08-07T09:47:33.646Z,51.72
2022-08-07T09:48:02.398Z,52.51
2022-08-07T09:50:56.332Z,51.86
2022-08-07T09:53:41.180Z,53.37
2022-08-07T09:56:46.418Z,53.80
2022-08-07T09:59:34.566Z,53.73
2022-08-07T10:02:29.457Z,49.88
2022-08-07T10:05:00.282Z,49.74
2022-08-07T10:08:05.717Z,50.09
2022-08-07T10:12:00.001Z,50.10
2022-08-07T10:14:23.069Z,48.69
2022-08-07T10:17:21.747Z,48.63
2022-08-07T10:20:22.001Z,49.67
2022-08-07T10:23:16.891Z,49.50
2022-08-07T10:26:24.679Z,48.88
2022-08-07T10:29:00.848Z,47.85
2022-08-07T10:31:39.782Z,46.97
2022-08-07T10:34:47.536Z,48.30
2022-08-07T10:38:00.328Z,46.35
2022-08-07T10:40:13.975Z,46.17
2022-08-07T10:43:07.392Z,47.51
2022-08-07T10:45:57.558Z,48.15
2022-08-07T10:48:35.451Z,48.86
2022-08-07T10:51:57.662Z,49.27
2022-08-07T10:54:32.202Z,49.16
2022-08-07T10:57:34.799Z,48.51
2022-08-07T11:00:02.063Z,49.05
2022-08-07T11:02:53.636Z,48.94
2022-08-07T11:05:50.364Z,48.65
2022-08-07T11:08:31.611Z,49.32
2022-08-07T11:11:10.638Z,49.42
2022-08-07T11:14:43.827Z,48.13
2022-08-07T11:16:52.775Z,48.29
2022-08-07T11:19:32.015Z,49.01
2022-08-07T11:22:26.630Z,48.97
2022-08-07T11:25:11.333Z,49.43
2022-08-07T11:28:04.192Z,49.72
2022-08-07T11:30:57.988Z,50.46
2022-08-07T11:34:00.368Z,51.10
2022-08-07T11:36:43.850Z,50.88
2022-08-07T11:39:14.489Z,49.59
2022-08-07T11:42:02.210Z,47.34
2022-08-07T11:44:57.619Z,46.86
2022-08-07T11:48:18.323Z,46.05
2022-08-07T11:51:41.623Z,44.43
2022-08-07T11:54:25.380Z,44.19
2022-08-07T11:57:57.658Z,44.34
2022-08-07T12:00:19.693Z,43.73
2022-08-07T12:02:57.295Z,43.62
2022-08-07T12:05:49.037Z,42.99
2022-08-07T12:08:31.928Z,42.31
2022-08-07T12:11:21.046Z,40.30
2022-08-07T12:13:55.224Z,41.78
2022-08-07T12:16:37.634Z,41.24
2022-08-07T12:19:35.661Z,40.97
2022-08-07T12:22:58.591Z,39.03
2022-08-07T12:26:05.623Z,38.73
2022-08-07T12:28:59.165Z,39.41
2022-08-07T12:31:52.817Z,38.13
2022-08-07T12:34:29.567Z,38.30
2022-08-07T12:36:57.847Z,38.51
2022-08-07T12:39:44.823Z,38.45
2022-08-07T12:42:27.350Z,39.15
2022-08-07T12:44:59.096Z,39.33
2022-08-07T12:47:50.214Z,39.05
2022-08-07T12:50:39.428Z,38.81
2022-08-07T12:54:23.971Z,38.92
2022-08-07T12:56:39.633Z,38.44
2022-08-07T12:59:08.739Z,38.51
2022-08-07T13:02:25.006Z,37.24
2022-08-07T13:06:03.857Z,36.86
2022-08-07T13:08:23.524Z,38.31
2022-08-07T13:11:31.035Z,38.47
2022-08-07T13:14:37.195Z,38.62
2022-08-07T13:17:41.216Z,40.10
2022-08-07T13:20:21.731Z,40.68
2022-08-07T13:24:02.854Z,40.28
2022-08-07T13:26:25.593Z,39.89
2022-08-07T13:28:59.034Z,39.97
2022-08-07T13:31:54.962Z,39.66
2022-08-07T13:34:44.551Z,39.60
2022-08-07T13:37:30.828Z,40.17
2022-08-07T13:40:35.412Z,40.33
2022-08-07T13:43:13.380Z,39.15
2022-08-07T13:46:11.379Z,39.20
2022-08-07T13:48:40.702Z,40.18
2022-08-07T13:51:27.316Z,40.52
2022-08-07T13:54:07.556Z,40.66
2022-08-07T13:56:40.895Z,41.51
2022-08-07T13:59:27.110Z,42.86
2022-08-07T14:02:14.063Z,42.27
2022-08-07T14:05:00.733Z,41.73
2022-08-07T14:07:31.602Z,41.27
2022-08-07T14:10:17.623Z,38.35
2022-08-07T14:12:58.727Z,38.73
2022-08-07T14:15:42.799Z,37.52
2022-08-07T14:18:29.303Z,37.55
2022-08-07T14:21:21.111Z,37.34
2022-08-07T14:24:09.609Z,38.46
2022-08-07T14:26:57.342Z,38.87
2022-08-07T14:30:05.562Z,38.39
2022-08-07T14:32:19.844Z,38.05
2022-08-07T14:34:49.746Z,36.82
2022-08-07T14:37:23.860Z,37.32
2022-08-07T14:40:16.164Z,37.60
2022-08-07T14:45:54.797Z,39.22
2022-08-07T14:48:27.583Z,40.03
2022-08-07T14:50:58.137Z,41.36
2022-08-07T14:59:14.060Z,45.28
2022-08-07T15:02:33.211Z,44.84
2022-08-07T15:04:57.994Z,45.10
2022-08-07T15:07:51.005Z,44.79
2022-08-07T15:13:25.296Z,45.84
2022-08-07T15:16:00.693Z,47.11
2022-08-07T15:18:41.571Z,47.72
2022-08-07T15:25:13.969Z,47.72
2022-08-07T15:27:24.344Z,47.99
2022-08-07T15:30:04.746Z,49.10
2022-08-07T15:33:01.190Z,49.21
2022-08-07T15:38:31.027Z,48.13
2022-08-07T15:41:24.126Z,48.55
2022-08-07T15:44:10.125Z,48.56
2022-08-07T15:46:47.414Z,47.91
2022-08-07T15:50:05.022Z,47.83
2022-08-07T15:52:30.674Z,48.98
2022-08-07T15:55:02.732Z,47.21
2022-08-07T15:57:47.294Z,46.10
2022-08-07T16:00:31.897Z,46.05
2022-08-07T16:03:46.334Z,47.40
2022-08-07T16:06:13.040Z,47.12
2022-08-07T16:08:47.360Z,45.92
2022-08-07T16:11:40.221Z,47.72
2022-08-07T16:14:53.841Z,47.32
2022-08-07T16:18:01.374Z,46.73
2022-08-07T16:20:33.702Z,45.51
2022-08-07T16:23:53.485Z,45.24
2022-08-07T16:26:30.445Z,44.38
2022-08-07T16:30:07.091Z,45.07
2022-08-07T16:32:32.812Z,45.21
2022-08-07T16:35:00.970Z,44.53
2022-08-07T16:38:05.832Z,46.02
2022-08-07T16:41:06.655Z,46.70
2022-08-07T16:44:46.324Z,46.54
2022-08-07T16:47:42.267Z,46.04
2022-08-07T16:51:13.474Z,47.36
2022-08-07T16:54:01.381Z,48.48
2022-08-07T16:56:32.730Z,47.21
2022-08-07T16:59:14.537Z,47.09
2022-08-07T17:02:02.938Z,47.39
2022-08-07T17:04:58.513Z,48.27
2022-08-07T17:07:55.489Z,49.09
2022-08-07T17:10:39.240Z,49.61
2022-08-07T17:13:24.795Z,51.12
2022-08-07T17:16:16.342Z,52.14
2022-08-07T17:19:16.436Z,52.62
2022-08-07T17:21:51.711Z,52.31
2022-08-07T17:24:34.660Z,52.75
2022-08-07T17:27:08.843Z,52.56
2022-08-07T17:30:14.531Z,52.78
2022-08-07T17:33:39.214Z,53.57
2022-08-07T17:36:20.395Z,53.74
2022-08-07T17:39:19.897Z,54.04
2022-08-07T17:42:03.879Z,55.11
2022-08-07T17:44:46.942Z,55.11
2022-08-07T17:47:42.880Z,56.07
2022-08-07T17:50:49.620Z,56.87
2022-08-07T17:54:01.360Z,58.38
2022-08-07T17:56:49.733Z,59.30
2022-08-07T17:59:44.852Z,59.76
2022-08-07T18:02:17.596Z,59.95
2022-08-07T18:05:20.836Z,60.51
2022-08-07T18:08:24.418Z,60.84
2022-08-07T18:12:07.938Z,60.94
2022-08-07T18:14:31.631Z,61.84
2022-08-07T18:17:05.298Z,61.85
2022-08-07T18:21:12.715Z,62.00
2022-08-07T18:22:45.763Z,62.24
2022-08-07T18:25:39.130Z,62.57
2022-08-07T18:28:34.100Z,62.60
2022-08-07T18:31:18.553Z,62.98
2022-08-07T18:34:37.580Z,62.89
2022-08-07T18:38:56.751Z,62.89
2022-08-07T18:40:57.729Z,63.63
2022-08-07T18:43:42.901Z,64.26
2022-08-07T18:46:27.402Z,64.55
2022-08-07T18:50:31.269Z,64.87
2022-08-07T18:52:37.612Z,65.49
2022-08-07T18:55:42.745Z,66.03
2022-08-07T18:58:42.762Z,66.67
2022-08-07T19:01:58.888Z,67.31
2022-08-07T19:04:03.962Z,67.33
2022-08-07T19:06:52.906Z,67.74
2022-08-07T19:09:55.306Z,68.20
2022-08-07T19:12:26.335Z,68.72
2022-08-07T19:14:56.568Z,69.07
2022-08-07T19:18:03.960Z,69.56
2022-08-07T19:20:30.983Z,70.02
2022-08-07T19:23:18.389Z,70.68
2022-08-07T19:26:23.846Z,70.94
2022-08-07T19:30:55.676Z,71.60
2022-08-07T19:32:07.799Z,72.55
2022-08-07T19:34:47.941Z,73.78
2022-08-07T19:37:18.550Z,74.56
2022-08-07T19:40:02.259Z,75.27
2022-08-07T19:42:31.781Z,75.98
2022-08-07T19:45:12.956Z,76.60
2022-08-07T19:47:59.927Z,76.94
2022-08-07T19:50:43.753Z,77.60
2022-08-07T19:54:44.437Z,77.81
2022-08-07T19:56:15.172Z,78.61
2022-08-07T19:58:57.927Z,79.01
2022-08-07T20:01:56.266Z,79.50
2022-08-07T20:04:31.976Z,80.34
2022-08-07T20:07:09.186Z,81.06
2022-08-07T20:10:34.150Z,81.45
2022-08-07T20:12:36.156Z,82.07
2022-08-07T20:15:15.573Z,82.11
2022-08-07T20:17:56.370Z,83.01
2022-08-07T20:20:34.971Z,83.02
2022-08-07T20:23:23.247Z,83.02
2022-08-07T20:26:04.585Z,83.28
2022-08-07T20:28:39.867Z,83.57
2022-08-07T20:31:21.229Z,83.67
2022-08-07T20:33:56.742Z,84.10
2022-08-07T20:36:28.485Z,84.41
2022-08-07T20:39:00.834Z,84.59
2022-08-07T20:41:48.375Z,84.45
2022-08-07T20:44:16.382Z,84.61
2022-08-07T20:46:46.811Z,85.03
2022-08-07T20:49:59.635Z,85.25
2022-08-07T20:52:30.228Z,85.32
2022-08-07T20:55:12.458Z,85.57
2022-08-07T20:57:51.380Z,86.13
2022-08-07T21:00:42.947Z,87.09
2022-08-07T21:03:16.891Z,87.79
2022-08-07T21:05:56.596Z,88.29
2022-08-07T21:08:41.237Z,87.78
2022-08-07T21:11:12.261Z,87.87
2022-08-07T21:14:29.375Z,88.46
2022-08-07T21:17:06.543Z,88.45
2022-08-07T21:19:51.707Z,88.93
2022-08-07T21:22:33.446Z,89.71
2022-08-07T21:25:04.788Z,89.39
2022-08-07T21:28:10.847Z,89.79
2022-08-07T21:30:55.065Z,90.10
2022-08-07T21:33:41.153Z,90.15
2022-08-07T21:36:11.846Z,90.33
2022-08-07T21:39:47.120Z,90.21
2022-08-07T21:45:42.113Z,91.11
2022-08-07T21:48:48.260Z,90.14
2022-08-07T21:51:57.871Z,89.92
2022-08-07T21:54:38.319Z,90.09
2022-08-07T21:57:40.090Z,90.40
2022-08-07T22:00:22.346Z,90.57
2022-08-07T22:02:53.252Z,90.57
2022-08-07T22:05:45.862Z,90.65
2022-08-07T22:08:14.362Z,89.92
2022-08-07T22:10:53.960Z,90.17
2022-08-07T22:13:52.353Z,90.25
2022-08-07T22:16:38.947Z,90.32
2022-08-07T22:19:29.436Z,90.63
2022-08-07T22:22:28.573Z,91.05
2022-08-07T22:25:03.240Z,91.83
2022-08-07T22:27:34.065Z,91.85
2022-08-07T22:30:21.286Z,91.97
2022-08-07T22:33:12.528Z,92.23
2022-08-07T22:35:58.309Z,92.06
2022-08-07T22:38:31.886Z,92.09
2022-08-07T22:41:02.943Z,92.64
2022-08-07T22:43:36.818Z,92.80
2022-08-07T22:46:43.166Z,93.29
2022-08-07T22:49:15.880Z,92.98
2022-08-07T22:51:52.093Z,93.06
2022-08-07T22:54:31.678Z,93.04
2022-08-07T22:57:32.341Z,93.09
2022-08-07T23:00:04.528Z,92.92
2022-08-07T23:02:41.500Z,92.78
2022-08-07T23:06:15.061Z,92.80
2022-08-07T23:08:24.207Z,92.13
2022-08-07T23:11:16.699Z,91.99
2022-08-07T23:14:15.033Z,92.01
2022-08-07T23:16:54.960Z,91.94
2022-08-07T23:19:57.916Z,92.26
2022-08-07T23:22:34.052Z,92.51
2022-08-07T23:25:07.066Z,92.36
2022-08-07T23:28:22.923Z,92.67
2022-08-07T23:32:50.342Z,93.29
2022-08-07T23:34:34.650Z,93.55
2022-08-07T23:37:29.670Z,93.58
2022-08-07T23:40:14.670Z,93.41
2022-08-07T23:43:17.440Z,93.65
2022-08-07T23:46:10.828Z,93.69
2022-08-07T23:49:15.814Z,93.53
2022-08-07T23:52:58.451Z,93.33
2022-08-07T23:54:58.338Z,93.46
2022-08-07T23:57:55.764Z,93.49
